Time,TemperatureC,DewpointC,PressurehPa,WindDirection,WindDirectionDegrees,WindSpeedKMH,WindSpeedGustKMH,Humidity,HourlyPrecipMM,Conditions,Clouds,dailyrainMM,SolarRadiationWatts/m^2,UVIndex,SoftwareType,DateUTC
2026-09-04 00:04:55,15.7,8.5,999.2,NW,323,0.5,3.7,62.3,0.0,,,0.0,0,0,n/a,2026-09-03T12:04:55Z
2026-09-04 00:09:59,15.4,8.4,999.0,NW,310,2.6,6.4,63,0.0,,,0.0,0,0,n/a,2026-09-03T12:09:59Z
2026-09-04 00:14:57,15.4,8.4,999.0,NW,318,4.8,14.8,63,0.0,,,0.0,0,0,n/a,2026-09-03T12:14:57Z
2026-09-04 00:19:55,15.7,8.4,999.0,NW,318,5.9,16.7,62,0.0,,,0.0,0,0,n/a,2026-09-03T12:19:55Z
2026-09-04 00:24:58,16.1,8.5,998.9,NW,316,5.9,13,60.8,0.0,,,0.0,0,0,n/a,2026-09-03T12:24:58Z
2026-09-04 00:29:58,16.3,8.5,998.8,NNW,338,2.7,9.3,60,0.0,,,0.0,0,0,n/a,2026-09-03T12:29:58Z
2026-09-04 00:34:55,16.3,8.6,998.7,NNW,343,1.5,5.6,60,0.0,,,0.0,0,0,n/a,2026-09-03T12:34:55Z
2026-09-04 00:39:57,16.2,8.5,998.7,NNE,13,1.1,5.6,60.4,0.0,,,0.0,0,0,n/a,2026-09-03T12:39:57Z
2026-09-04 00:44:56,16.1,8.6,998.7,NNW,328,3.9,13,61,0.0,,,0.0,0,0,n/a,2026-09-03T12:44:56Z
2026-09-04 00:49:56,16.2,8.6,998.5,NW,308,6.3,17.7,60.7,0.0,,,0.0,0,0,n/a,2026-09-03T12:49:56Z
2026-09-04 00:54:56,16.3,8.6,998.5,NW,310,5.1,18.5,60,0.0,,,0.0,0,0,n/a,2026-09-03T12:54:56Z
2026-09-04 00:59:56,16.4,8.6,998.4,NW,326,4.8,13,60,0.0,,,0.0,0,0,n/a,2026-09-03T12:59:56Z
2026-09-04 01:04:55,16.4,8.6,998.3,NW,319,4.1,12.9,60,0.0,,,0.0,0,0,n/a,2026-09-03T13:04:55Z
2026-09-04 01:09:57,16.5,8.6,998.3,NW,310,8,16.7,59.8,0.0,,,0.0,0,0,n/a,2026-09-03T13:09:57Z
2026-09-04 01:14:57,16.6,8.6,998.2,NW,323,7.2,14.8,59,0.0,,,0.0,0,0,n/a,2026-09-03T13:14:57Z
2026-09-04 01:19:56,16.8,8.6,998.0,NNW,338,6.1,14.8,58.5,0.0,,,0.0,0,0,n/a,2026-09-03T13:19:56Z
2026-09-04 01:24:59,16.8,8.5,998.0,NW,310,4.8,13,58,0.0,,,0.0,0,0,n/a,2026-09-03T13:24:59Z
2026-09-04 01:29:58,16.8,8.5,997.8,NW,305,4.7,11.3,58,0.0,,,0.0,0,0,n/a,2026-09-03T13:29:58Z
2026-09-04 01:34:56,16.7,8.4,997.8,WNW,295,6.3,13,58.2,0.0,,,0.0,0,0,n/a,2026-09-03T13:34:56Z
2026-09-04 01:39:57,16.7,8.3,997.5,NW,308,6.3,13,58,0.0,,,0.0,0,0,n/a,2026-09-03T13:39:57Z
2026-09-04 01:44:57,16.8,8.3,997.3,WNW,299,8.9,19.3,57.3,0.0,,,0.0,0,0,n/a,2026-09-03T13:44:57Z
2026-09-04 01:49:57,16.9,8.3,997.3,NNW,344,5.8,11.3,56.9,0.0,,,0.0,0,0,n/a,2026-09-03T13:49:57Z
2026-09-04 01:54:55,16.9,8.1,997.2,NW,318,4.7,13,56,0.0,,,0.0,0,0,n/a,2026-09-03T13:54:55Z
2026-09-04 01:59:55,16.9,8.1,997.0,North,349,2.6,8,56,0.0,,,0.0,0,0,n/a,2026-09-03T13:59:55Z
2026-09-04 02:04:57,16.9,8.1,996.9,NW,310,5.7,14.8,56.1,0.0,,,0.0,0,0,n/a,2026-09-03T14:04:57Z
2026-09-04 02:09:58,16.9,8.2,996.7,NNE,30,5.5,14.8,56.3,0.0,,,0.0,0,0,n/a,2026-09-03T14:09:58Z
2026-09-04 02:14:57,16.9,8.1,996.4,NE,43,5,14.8,56,0.0,,,0.0,0,0,n/a,2026-09-03T14:14:57Z
2026-09-04 02:19:55,17,8.3,996.3,ENE,71,4.5,13,56.5,0.0,,,0.0,0,0,n/a,2026-09-03T14:19:55Z
2026-09-04 02:24:56,16.9,8.4,995.9,NNW,329,4.4,11.3,57,0.0,,,0.0,0,0,n/a,2026-09-03T14:24:56Z
2026-09-04 02:29:54,16.8,8.3,995.7,NW,320,4.3,8,57.3,0.0,,,0.0,0,0,n/a,2026-09-03T14:29:54Z
2026-09-04 02:34:58,16.7,8.4,995.1,ENE,64,4.2,11.3,58,0.0,,,0.0,0,0,n/a,2026-09-03T14:34:58Z
2026-09-04 02:39:58,16.7,8.3,995.1,ENE,71,3.6,11.3,58,0.0,,,0.0,0,0,n/a,2026-09-03T14:39:58Z
2026-09-04 02:44:58,16.6,8.5,995.2,NE,34,1.4,4.8,58.7,0.0,,,0.0,0,0,n/a,2026-09-03T14:44:58Z
2026-09-04 02:49:56,16.4,8.5,995.1,NE,52,1,5.6,59.4,0.0,,,0.0,0,0,n/a,2026-09-03T14:49:56Z
2026-09-04 02:54:58,16.2,8.5,994.9,NNE,13,2.2,9.7,60.2,0.0,,,0.0,0,0,n/a,2026-09-03T14:54:58Z
2026-09-04 02:59:55,16.2,8.4,994.6,NW,311,9.5,24.1,60,0.0,,,0.0,0,0,n/a,2026-09-03T14:59:55Z
2026-09-04 03:04:54,16.7,8.5,994.5,NW,306,13.8,25.9,58.4,0.0,,,0.0,0,0,n/a,2026-09-03T15:04:54Z
2026-09-04 03:09:57,17.1,8.5,994.6,NW,310,10.5,18.5,56.9,0.0,,,0.0,0,0,n/a,2026-09-03T15:09:57Z
2026-09-04 03:14:55,17.3,8.4,994.6,NW,311,10.3,18.5,56,0.0,,,0.0,0,0,n/a,2026-09-03T15:14:55Z
2026-09-04 03:19:55,17.4,8.5,994.5,NW,305,6.9,16.7,56,0.0,,,0.0,0,0,n/a,2026-09-03T15:19:55Z
2026-09-04 03:24:56,17.4,8.3,994.6,WNW,303,9,19.3,55.2,0.0,,,0.0,0,0,n/a,2026-09-03T15:24:56Z
2026-09-04 03:29:55,17.6,8.4,994.6,NW,316,7,14.8,55,0.0,,,0.0,0,0,n/a,2026-09-03T15:29:55Z
2026-09-04 03:34:55,17.7,8.4,994.3,NNW,333,4.1,13,54.8,0.0,,,0.0,0,0,n/a,2026-09-03T15:34:55Z
2026-09-04 03:39:56,17.7,8.5,994.1,North,8,4.1,8,55,0.0,,,0.0,0,0,n/a,2026-09-03T15:39:56Z
2026-09-04 03:44:55,17.6,8.4,993.9,NNW,333,2.3,8,55,0.0,,,0.0,0,0,n/a,2026-09-03T15:44:55Z
2026-09-04 03:49:59,17.5,8.6,993.8,NW,319,7.4,16.7,55.9,0.0,,,0.0,0,0,n/a,2026-09-03T15:49:59Z
2026-09-04 03:54:59,17.5,8.4,994.0,WNW,302,12.6,24.1,55.4,0.0,,,0.0,0,0,n/a,2026-09-03T15:54:59Z
2026-09-04 03:59:59,17.7,8.4,993.7,NW,312,12.1,19.3,54.6,0.0,,,0.0,0,0,n/a,2026-09-03T15:59:59Z
2026-09-04 04:04:59,17.9,8.4,993.2,NW,309,12.6,25.9,54,0.0,,,0.0,0,0,n/a,2026-09-03T16:04:59Z
2026-09-04 04:09:54,18,8.5,993.0,NW,317,12.8,25.9,54,0.0,,,0.0,0,0,n/a,2026-09-03T16:09:54Z
2026-09-04 04:14:56,18,8.4,992.6,NNW,330,10.4,24.1,53.6,0.0,,,0.0,0,0,n/a,2026-09-03T16:14:56Z
2026-09-04 04:19:56,17.8,8.5,992.3,NW,323,13.5,32.2,54.4,0.0,,,0.0,0,0,n/a,2026-09-03T16:19:56Z
2026-09-04 04:24:57,17.6,8.8,992.0,NW,320,12.2,24.1,56.2,0.0,,,0.0,0,0,n/a,2026-09-03T16:24:57Z
2026-09-04 04:29:54,17.4,8.9,991.7,NNW,329,13.7,25.7,57.4,0.0,,,0.0,0,0,n/a,2026-09-03T16:29:54Z
2026-09-04 04:34:54,17.2,9,991.7,NW,322,13.3,25.9,58.4,0.0,,,0.0,0,0,n/a,2026-09-03T16:34:54Z
2026-09-04 04:39:57,17.1,9.1,991.7,NW,315,12.9,25.9,59.3,0.0,,,0.0,0,0,n/a,2026-09-03T16:39:57Z
2026-09-04 04:44:57,17.1,9.2,991.6,NW,309,16.5,29.6,60,0.0,,,0.0,0,0,n/a,2026-09-03T16:44:57Z
2026-09-04 04:49:56,17.1,9.5,991.5,NW,311,17.2,29.6,61,0.0,,,0.0,0,0,n/a,2026-09-03T16:49:56Z
2026-09-04 04:54:55,17,9.7,991.1,NW,311,15.4,27.8,61.9,0.0,,,0.0,0,0,n/a,2026-09-03T16:54:55Z
2026-09-04 04:59:55,17,9.7,991.5,WNW,302,18.5,33.8,62,0.0,,,0.0,0,0,n/a,2026-09-03T16:59:55Z
2026-09-04 05:04:56,17,9.7,991.4,NW,309,19,32.2,62.2,0.0,,,0.0,0,0,n/a,2026-09-03T17:04:56Z
2026-09-04 05:09:59,17,9.8,991.3,NW,309,17.6,33.8,63,0.0,,,0.0,0,0,n/a,2026-09-03T17:09:59Z
2026-09-04 05:14:54,16.9,9.8,991.0,NW,312,16.6,29.6,62.7,0.0,,,0.0,0,0,n/a,2026-09-03T17:14:54Z
2026-09-04 05:19:54,16.9,9.6,990.5,NW,312,13.5,24.1,62,0.0,,,0.0,0,0,n/a,2026-09-03T17:19:54Z
2026-09-04 05:24:56,16.9,9.5,990.2,NW,312,14.1,29,61.6,0.0,,,0.0,0,0,n/a,2026-09-03T17:24:56Z
2026-09-04 05:29:55,17,9.5,990.0,NW,312,16.7,29.6,61,0.0,,,0.0,0,0,n/a,2026-09-03T17:29:55Z
2026-09-04 05:34:55,17.1,9.3,990.5,NW,313,17.7,33.8,60.3,0.0,,,0.0,0,0,n/a,2026-09-03T17:34:55Z
2026-09-04 05:39:57,17.1,9.5,991.1,NW,305,15.2,27.8,60.9,0.0,,,0.0,0,0,n/a,2026-09-03T17:39:57Z
2026-09-04 05:44:57,17,9.5,991.2,WNW,303,16,29.6,61.5,0.0,,,0.0,0,0,n/a,2026-09-03T17:44:57Z
2026-09-04 05:49:57,16.9,9.6,991.3,WNW,300,12.8,19.3,62,0.0,,,0.0,0,0,n/a,2026-09-03T17:49:57Z
2026-09-04 05:54:57,17,9.7,991.2,NW,315,10.3,20.9,62,0.0,,,0.0,0,0,n/a,2026-09-03T17:54:57Z
2026-09-04 05:59:56,17,9.7,990.2,NW,324,10,20.9,62,0.0,,,0.0,0,0,n/a,2026-09-03T17:59:56Z
2026-09-04 06:04:55,17,9.6,990.5,NW,312,12.6,22.5,62,0.0,,,0.0,0,0,n/a,2026-09-03T18:04:55Z
2026-09-04 06:09:57,17,9.6,990.7,NW,321,11.5,22.5,62,0.0,,,0.0,0,0,n/a,2026-09-03T18:09:57Z
2026-09-04 06:14:56,17,9.7,990.4,NW,313,11.7,22.2,62,0.0,,,0.0,0,0,n/a,2026-09-03T18:14:56Z
2026-09-04 06:19:59,17,9.7,990.5,NW,317,7.3,14.8,62,0.0,,,0.0,0,0,n/a,2026-09-03T18:19:59Z
2026-09-04 06:24:54,16.9,9.6,990.7,North,8,6.6,16.7,62,0.0,,,0.0,0,0,n/a,2026-09-03T18:24:54Z
2026-09-04 06:29:54,16.9,9.7,990.5,NNE,29,5.5,14.5,62.8,0.0,,,0.0,0,0,n/a,2026-09-03T18:29:54Z
2026-09-04 06:34:56,16.6,9.8,990.0,NE,43,7.3,14.8,64.1,0.0,,,0.0,0,0,n/a,2026-09-03T18:34:56Z
2026-09-04 06:39:58,16.5,9.8,989.7,NW,322,6,16.1,64.5,0.0,,,0.0,0,0,n/a,2026-09-03T18:39:58Z
2026-09-04 06:44:58,16.6,9.6,989.0,NNW,348,8.9,20.9,63.4,0.0,,,0.0,0,0,n/a,2026-09-03T18:44:58Z
2026-09-04 06:49:57,16.7,9.7,989.0,North,350,6,20.4,63,0.0,,,0.0,0,0,n/a,2026-09-03T18:49:57Z
2026-09-04 06:54:58,16.7,9.7,988.6,North,349,8.7,20.9,63.1,0.0,,,0.0,0,0,n/a,2026-09-03T18:54:58Z